createdAt,value
2022-12-03T00:03:03.875Z,-0.66
2022-12-03T00:08:07.167Z,-0.65
2022-12-03T00:13:10.186Z,-0.67
2022-12-03T00:18:13.208Z,-0.68
2022-12-03T00:23:16.254Z,-0.66
2022-12-03T00:28:19.308Z,-0.61
2022-12-03T00:33:23.174Z,-0.54
2022-12-03T00:38:29.089Z,-0.44
2022-12-03T00:43:33.183Z,-0.44
2022-12-03T00:48:36.202Z,-0.42
2022-12-03T00:53:39.203Z,-0.40
2022-12-03T00:58:42.192Z,-0.39
2022-12-03T01:03:45.213Z,-0.41
2022-12-03T01:08:48.216Z,-0.42
2022-12-03T01:13:51.211Z,-0.37
2022-12-03T01:18:54.233Z,-0.26
2022-12-03T01:23:57.987Z,-0.19
2022-12-03T01:29:00.999Z,-0.18
2022-12-03T01:34:04.337Z,-0.19
2022-12-03T01:39:07.779Z,-0.18
2022-12-03T01:44:23.416Z,-0.23
2022-12-03T01:49:39.930Z,-0.28
2022-12-03T01:54:48.380Z,-0.25
2022-12-03T01:59:53.537Z,-0.16
2022-12-03T02:04:57.058Z,-0.11
2022-12-03T02:10:03.214Z,-0.13
2022-12-03T02:15:08.200Z,-0.18
2022-12-03T02:20:13.053Z,-0.23
2022-12-03T02:25:29.437Z,-0.30
2022-12-03T02:30:32.874Z,-0.31
2022-12-03T02:35:38.653Z,-0.28
2022-12-03T02:40:43.159Z,-0.20
2022-12-03T02:45:54.046Z,-0.14
2022-12-03T02:51:11.307Z,-0.16
2022-12-03T02:56:21.249Z,-0.17
2022-12-03T03:01:27.336Z,-0.17
2022-12-03T03:06:31.008Z,-0.17
2022-12-03T03:11:34.095Z,-0.11
2022-12-03T03:16:37.846Z,-0.04
2022-12-03T03:21:43.978Z,-0.01
2022-12-03T03:26:47.871Z,0.01
2022-12-03T03:31:50.849Z,-0.00
2022-12-03T03:36:54.286Z,-0.06
2022-12-03T03:41:57.426Z,-0.13
2022-12-03T03:47:01.250Z,-0.15
2022-12-03T03:52:04.845Z,-0.11
2022-12-03T03:57:07.966Z,-0.07
2022-12-03T04:02:22.897Z,-0.06
2022-12-03T04:07:26.033Z,-0.07
2022-12-03T04:12:47.834Z,-0.14
2022-12-03T04:18:11.254Z,-0.12
2022-12-03T04:23:14.273Z,-0.04
2022-12-03T04:28:36.178Z,0.05
2022-12-03T04:33:57.731Z,0.05
2022-12-03T04:39:01.061Z,0.00
2022-12-03T04:44:22.994Z,-0.06
2022-12-03T04:49:26.618Z,-0.09
2022-12-03T04:54:30.029Z,-0.04
2022-12-03T04:59:34.057Z,0.01
2022-12-03T05:04:37.384Z,0.04
2022-12-03T05:09:40.495Z,0.06
2022-12-03T05:14:43.491Z,0.06
2022-12-03T05:20:05.358Z,0.03
2022-12-03T05:25:09.463Z,-0.00
2022-12-03T05:30:12.972Z,0.02
2022-12-03T05:35:16.118Z,0.05
2022-12-03T05:40:20.111Z,0.11
2022-12-03T05:45:35.268Z,0.08
2022-12-03T05:50:43.942Z,0.13
2022-12-03T05:55:47.095Z,0.16
2022-12-03T06:00:50.144Z,0.16
2022-12-03T06:05:53.218Z,0.12
2022-12-03T06:10:56.244Z,0.10
2022-12-03T06:15:59.361Z,0.12
2022-12-03T06:21:03.435Z,0.18
2022-12-03T06:26:06.746Z,0.25
2022-12-03T06:31:09.767Z,0.30
2022-12-03T06:36:12.855Z,0.29
2022-12-03T06:41:15.863Z,0.25
2022-12-03T06:46:18.989Z,0.24
2022-12-03T06:51:22.103Z,0.25
2022-12-03T06:56:26.483Z,0.21
2022-12-03T07:01:31.522Z,0.28
2022-12-03T07:06:34.549Z,0.38
2022-12-03T07:11:40.631Z,0.39
2022-12-03T07:16:44.158Z,0.38
2022-12-03T07:21:47.205Z,0.32
2022-12-03T07:26:50.215Z,0.35
2022-12-03T07:31:53.380Z,0.39
2022-12-03T07:36:56.455Z,0.42
2022-12-03T07:42:00.047Z,0.49
2022-12-03T07:47:03.221Z,0.48
2022-12-03T07:52:07.433Z,0.45
2022-12-03T07:57:10.505Z,0.43
2022-12-03T08:02:18.206Z,0.47
2022-12-03T08:07:24.730Z,0.58
2022-12-03T08:12:42.867Z,0.65
2022-12-03T08:17:51.682Z,0.65
2022-12-03T08:22:56.364Z,0.64
2022-12-03T08:28:11.490Z,0.61
2022-12-03T08:33:36.927Z,0.56
2022-12-03T08:38:40.366Z,0.59
2022-12-03T08:43:44.028Z,0.67
2022-12-03T08:48:49.388Z,0.75
2022-12-03T08:54:02.157Z,0.85
2022-12-03T08:59:30.766Z,0.89
2022-12-03T09:04:46.878Z,0.89
2022-12-03T09:09:49.953Z,0.89
2022-12-03T09:14:53.191Z,0.89
2022-12-03T09:19:56.396Z,0.95
2022-12-03T09:24:59.575Z,0.99
2022-12-03T09:30:03.549Z,1.01
2022-12-03T09:35:07.443Z,1.05
2022-12-03T09:40:11.809Z,1.03
2022-12-03T09:45:16.085Z,0.98
2022-12-03T09:50:26.459Z,1.01
2022-12-03T09:55:30.129Z,1.06
2022-12-03T10:00:33.120Z,1.14
2022-12-03T10:05:36.253Z,1.18
2022-12-03T10:10:42.080Z,1.24
2022-12-03T10:15:45.183Z,1.25
2022-12-03T10:20:49.076Z,1.24
2022-12-03T10:26:04.220Z,1.29
2022-12-03T10:31:11.345Z,1.36
2022-12-03T10:36:20.749Z,1.46
2022-12-03T10:41:28.531Z,1.50
2022-12-03T10:46:31.567Z,1.58
2022-12-03T10:51:35.347Z,1.65
2022-12-03T10:56:38.464Z,1.66
2022-12-03T11:01:41.650Z,1.59
2022-12-03T11:06:48.338Z,1.56
2022-12-03T11:11:51.499Z,1.61
2022-12-03T11:17:07.577Z,1.71
2022-12-03T11:22:10.599Z,1.84
2022-12-03T11:27:20.873Z,1.93
2022-12-03T11:32:39.788Z,1.92
2022-12-03T11:37:42.867Z,1.81
2022-12-03T11:42:48.977Z,1.83
2022-12-03T11:47:58.192Z,1.94
2022-12-03T11:53:08.075Z,1.96
2022-12-03T11:58:32.181Z,1.86
2022-12-03T12:03:49.006Z,1.86
2022-12-03T12:08:52.068Z,1.87
2022-12-03T12:14:07.018Z,1.88
2022-12-03T12:19:43.664Z,1.91
2022-12-03T12:24:51.815Z,2.04
2022-12-03T12:30:01.534Z,2.11
2022-12-03T12:35:17.829Z,2.19
2022-12-03T12:40:26.925Z,2.18
2022-12-03T12:45:35.178Z,2.19
2022-12-03T12:50:39.510Z,2.14
2022-12-03T12:55:42.585Z,2.06
2022-12-03T13:00:57.237Z,2.08
2022-12-03T13:06:02.756Z,2.17
2022-12-03T13:11:12.138Z,2.22
2022-12-03T13:16:34.014Z,2.25
2022-12-03T13:21:44.776Z,2.33
2022-12-03T13:26:47.834Z,2.34
2022-12-03T13:32:10.092Z,2.40
2022-12-03T13:37:34.000Z,2.38
2022-12-03T13:42:42.280Z,2.36
2022-12-03T13:47:54.062Z,2.46
2022-12-03T13:52:57.462Z,2.61
2022-12-03T13:58:00.443Z,2.67
2022-12-03T14:03:03.607Z,2.57
2022-12-03T14:08:06.710Z,2.43
2022-12-03T14:13:09.748Z,2.31
2022-12-03T14:18:12.718Z,2.21
2022-12-03T14:23:16.065Z,2.14
2022-12-03T14:28:19.043Z,2.15
2022-12-03T14:33:22.021Z,2.26
2022-12-03T14:38:25.089Z,2.42
2022-12-03T14:43:28.096Z,2.47
2022-12-03T14:48:31.083Z,2.43
2022-12-03T14:53:34.059Z,2.33
2022-12-03T14:58:37.045Z,2.29
2022-12-03T15:03:40.028Z,2.21
2022-12-03T15:08:43.052Z,2.16
2022-12-03T15:13:46.086Z,2.16
2022-12-03T15:18:49.211Z,2.17
2022-12-03T15:23:52.219Z,2.28
2022-12-03T15:28:55.285Z,2.24
2022-12-03T15:33:58.681Z,2.22
2022-12-03T15:39:01.731Z,2.18
2022-12-03T15:44:05.681Z,2.09
2022-12-03T15:49:08.528Z,2.07
2022-12-03T15:54:12.481Z,2.16
2022-12-03T15:59:15.316Z,2.23
2022-12-03T16:04:18.321Z,2.23
2022-12-03T16:09:26.943Z,2.23
2022-12-03T16:14:30.640Z,2.23
2022-12-03T16:19:33.653Z,2.28
2022-12-03T16:24:36.694Z,2.34
2022-12-03T16:29:39.706Z,2.40
2022-12-03T16:34:42.729Z,2.47
2022-12-03T16:39:45.830Z,2.57
2022-12-03T16:45:23.010Z,2.67
2022-12-03T16:50:29.872Z,2.72
2022-12-03T16:55:33.725Z,2.67
2022-12-03T17:00:37.190Z,2.63
2022-12-03T17:05:40.691Z,2.59
2022-12-03T17:10:44.883Z,2.55
2022-12-03T17:15:47.979Z,2.54
2022-12-03T17:20:50.977Z,2.54
2022-12-03T17:25:54.003Z,2.51
2022-12-03T17:30:57.056Z,2.42
2022-12-03T17:36:00.106Z,2.35
2022-12-03T17:41:03.129Z,2.36
2022-12-03T17:46:07.564Z,2.38
2022-12-03T17:51:10.600Z,2.40
2022-12-03T17:56:13.638Z,2.47
2022-12-03T18:01:16.745Z,2.51
2022-12-03T18:06:19.854Z,2.50
2022-12-03T18:11:23.596Z,2.39
2022-12-03T18:16:26.980Z,2.26
2022-12-03T18:21:30.029Z,2.24
2022-12-03T18:26:33.080Z,2.24
2022-12-03T18:31:36.123Z,2.19
2022-12-03T18:36:39.144Z,2.16
2022-12-03T18:41:42.185Z,2.12
2022-12-03T18:46:53.663Z,2.07
2022-12-03T18:51:59.620Z,2.04
2022-12-03T18:57:05.905Z,2.03
2022-12-03T19:02:38.637Z,1.96
2022-12-03T19:07:40.095Z,1.90
2022-12-03T19:12:43.266Z,1.88
2022-12-03T19:17:50.744Z,1.88
2022-12-03T19:22:53.775Z,1.86
2022-12-03T19:27:57.476Z,1.84
2022-12-03T19:33:00.506Z,1.86
2022-12-03T19:38:03.488Z,1.88
2022-12-03T19:43:06.490Z,1.85
2022-12-03T19:48:09.858Z,1.80
2022-12-03T19:53:12.811Z,1.79
2022-12-03T19:58:15.781Z,1.75
2022-12-03T20:03:18.777Z,1.75
2022-12-03T20:08:21.857Z,1.82
2022-12-03T20:13:25.007Z,1.81
2022-12-03T20:18:28.019Z,1.76
2022-12-03T20:23:30.998Z,1.72
2022-12-03T20:28:34.006Z,1.73
2022-12-03T20:33:38.279Z,1.73
2022-12-03T20:38:41.338Z,1.69
2022-12-03T20:43:45.809Z,1.66
2022-12-03T20:48:50.432Z,1.65
2022-12-03T20:53:54.065Z,1.59
2022-12-03T20:59:00.654Z,1.56
2022-12-03T21:04:05.213Z,1.56
2022-12-03T21:09:10.159Z,1.57
2022-12-03T21:14:13.164Z,1.60
2022-12-03T21:19:20.829Z,1.61
2022-12-03T21:24:23.983Z,1.62
2022-12-03T21:29:27.075Z,1.67
2022-12-03T21:34:36.111Z,1.68
2022-12-03T21:39:39.687Z,1.68
2022-12-03T21:44:42.695Z,1.73
2022-12-03T21:49:45.679Z,1.75
2022-12-03T21:54:51.823Z,1.79
2022-12-03T21:59:56.075Z,1.75
2022-12-03T22:04:59.233Z,1.69
2022-12-03T22:10:03.510Z,1.70
2022-12-03T22:15:07.474Z,1.79
2022-12-03T22:20:10.878Z,1.77
2022-12-03T22:25:13.888Z,1.70
2022-12-03T22:30:17.009Z,1.67
2022-12-03T22:35:21.444Z,1.70
2022-12-03T22:40:24.476Z,1.68
2022-12-03T22:45:27.495Z,1.59
2022-12-03T22:50:30.493Z,1.57
2022-12-03T22:55:33.475Z,1.64
2022-12-03T23:00:40.332Z,1.60
2022-12-03T23:05:43.482Z,1.65
2022-12-03T23:10:50.484Z,1.72
2022-12-03T23:15:53.556Z,1.69
2022-12-03T23:20:57.623Z,1.64
2022-12-03T23:26:09.933Z,1.60
2022-12-03T23:31:33.469Z,1.60
2022-12-03T23:36:36.739Z,1.57
2022-12-03T23:41:39.743Z,1.52
2022-12-03T23:46:42.855Z,1.60
2022-12-03T23:51:46.908Z,1.59
2022-12-03T23:56:49.856Z,1.59
